sensor_id;sensor_type;location;lat;lon;timestamp;pressure;altitude;pressure_sealevel;temperature;humidity
58239;BME280;44037;55.638;37.356;2023-03-20T00:01:55;99643.34;;;-2.11;85.37
58239;BME280;44037;55.638;37.356;2023-03-20T00:04:22;99645.88;;;-2.11;86.00
58239;BME280;44037;55.638;37.356;2023-03-20T00:06:50;99650.19;;;-2.10;86.10
58239;BME280;44037;55.638;37.356;2023-03-20T00:09:17;99652.84;;;-2.08;86.75
58239;BME280;44037;55.638;37.356;2023-03-20T00:11:48;99649.41;;;-2.09;86.65
58239;BME280;44037;55.638;37.356;2023-03-20T00:14:18;99653.50;;;-2.11;87.13
58239;BME280;44037;55.638;37.356;2023-03-20T00:16:48;99649.41;;;-2.09;87.22
58239;BME280;44037;55.638;37.356;2023-03-20T00:19:16;99648.69;;;-2.06;87.75
58239;BME280;44037;55.638;37.356;2023-03-20T00:21:44;99653.88;;;-2.05;88.01
58239;BME280;44037;55.638;37.356;2023-03-20T00:24:12;99643.72;;;-2.05;88.20
58239;BME280;44037;55.638;37.356;2023-03-20T00:26:40;99643.03;;;-2.02;88.78
58239;BME280;44037;55.638;37.356;2023-03-20T00:29:17;99647.41;;;-1.99;87.96
58239;BME280;44037;55.638;37.356;2023-03-20T00:31:46;99644.19;;;-1.97;88.73
58239;BME280;44037;55.638;37.356;2023-03-20T00:34:15;99645.06;;;-1.96;88.57
58239;BME280;44037;55.638;37.356;2023-03-20T00:36:43;99655.28;;;-1.95;89.05
58239;BME280;44037;55.638;37.356;2023-03-20T00:39:10;99646.88;;;-1.94;89.47
58239;BME280;44037;55.638;37.356;2023-03-20T00:41:41;99643.69;;;-1.91;88.59
58239;BME280;44037;55.638;37.356;2023-03-20T00:44:18;99642.88;;;-1.90;89.21
58239;BME280;44037;55.638;37.356;2023-03-20T00:46:48;99639.72;;;-1.86;89.74
58239;BME280;44037;55.638;37.356;2023-03-20T00:49:16;99633.06;;;-1.84;90.08
58239;BME280;44037;55.638;37.356;2023-03-20T00:51:44;99633.25;;;-1.81;89.83
58239;BME280;44037;55.638;37.356;2023-03-20T00:54:12;99634.22;;;-1.79;89.84
58239;BME280;44037;55.638;37.356;2023-03-20T00:56:41;99624.16;;;-1.77;89.72
58239;BME280;44037;55.638;37.356;2023-03-20T00:59:21;99625.03;;;-1.77;89.29
58239;BME280;44037;55.638;37.356;2023-03-20T01:01:50;99627.66;;;-1.75;89.66
58239;BME280;44037;55.638;37.356;2023-03-20T01:04:18;99621.78;;;-1.74;89.46
58239;BME280;44037;55.638;37.356;2023-03-20T01:06:46;99620.91;;;-1.75;89.83
58239;BME280;44037;55.638;37.356;2023-03-20T01:09:13;99627.75;;;-1.74;89.84
58239;BME280;44037;55.638;37.356;2023-03-20T01:11:43;99626.88;;;-1.74;89.63
58239;BME280;44037;55.638;37.356;2023-03-20T01:14:13;99620.13;;;-1.74;89.70
58239;BME280;44037;55.638;37.356;2023-03-20T01:16:43;99621.69;;;-1.76;89.45
58239;BME280;44037;55.638;37.356;2023-03-20T01:19:11;99622.59;;;-1.75;89.89
58239;BME280;44037;55.638;37.356;2023-03-20T01:21:39;99621.69;;;-1.76;89.47
58239;BME280;44037;55.638;37.356;2023-03-20T01:24:06;99627.59;;;-1.77;89.53
58239;BME280;44037;55.638;37.356;2023-03-20T01:26:35;99618.81;;;-1.82;89.56
58239;BME280;44037;55.638;37.356;2023-03-20T01:29:04;99625.47;;;-1.84;89.42
58239;BME280;44037;55.638;37.356;2023-03-20T01:31:43;99617.66;;;-1.87;89.33
58239;BME280;44037;55.638;37.356;2023-03-20T01:34:11;99620.03;;;-1.90;89.24
58239;BME280;44037;55.638;37.356;2023-03-20T01:36:38;99614.06;;;-1.91;89.08
58239;BME280;44037;55.638;37.356;2023-03-20T01:39:06;99613.19;;;-1.91;89.27
58239;BME280;44037;55.638;37.356;2023-03-20T01:41:33;99615.63;;;-1.93;89.24
58239;BME280;44037;55.638;37.356;2023-03-20T01:44:12;99615.63;;;-1.93;88.92
58239;BME280;44037;55.638;37.356;2023-03-20T01:46:44;99610.56;;;-1.93;89.54
58239;BME280;44037;55.638;37.356;2023-03-20T01:52:16;99594.25;;;-1.96;89.21
58239;BME280;44037;55.638;37.356;2023-03-20T01:54:43;99597.59;;;-1.97;89.00
58239;BME280;44037;55.638;37.356;2023-03-20T01:57:12;99595.84;;;-1.98;88.69
58239;BME280;44037;55.638;37.356;2023-03-20T01:59:43;99595.84;;;-1.98;88.80
58239;BME280;44037;55.638;37.356;2023-03-20T02:02:15;99588.22;;;-1.98;88.78
58239;BME280;44037;55.638;37.356;2023-03-20T02:04:47;99593.28;;;-1.98;88.54
58239;BME280;44037;55.638;37.356;2023-03-20T02:07:17;99587.34;;;-1.99;89.01
58239;BME280;44037;55.638;37.356;2023-03-20T02:09:47;99583.31;;;-1.95;88.82
58239;BME280;44037;55.638;37.356;2023-03-20T02:12:15;99589.38;;;-1.93;88.89
58239;BME280;44037;55.638;37.356;2023-03-20T02:14:44;99592.78;;;-1.93;88.40
58239;BME280;44037;55.638;37.356;2023-03-20T02:17:34;99587.63;;;-1.94;88.28
58239;BME280;44037;55.638;37.356;2023-03-20T02:20:08;99580.78;;;-1.95;88.53
58239;BME280;44037;55.638;37.356;2023-03-20T02:26:07;99575.88;;;-1.92;88.05
58239;BME280;44037;55.638;37.356;2023-03-20T02:31:59;99575.88;;;-1.92;87.45
58239;BME280;44037;55.638;37.356;2023-03-20T02:34:55;99582.72;;;-1.91;87.74
58239;BME280;44037;55.638;37.356;2023-03-20T02:40:32;99566.25;;;-1.83;87.63
58239;BME280;44037;55.638;37.356;2023-03-20T02:43:08;99569.06;;;-1.78;87.22
58239;BME280;44037;55.638;37.356;2023-03-20T02:45:47;99570.97;;;-1.74;87.11
58239;BME280;44037;55.638;37.356;2023-03-20T02:48:20;99566.78;;;-1.74;87.11
58239;BME280;44037;55.638;37.356;2023-03-20T02:50:57;99567.56;;;-1.75;86.57
58239;BME280;44037;55.638;37.356;2023-03-20T02:53:34;99561.63;;;-1.75;86.10
58239;BME280;44037;55.638;37.356;2023-03-20T02:56:11;99564.22;;;-1.74;86.09
58239;BME280;44037;55.638;37.356;2023-03-20T02:58:46;99569.41;;;-1.72;86.36
58239;BME280;44037;55.638;37.356;2023-03-20T03:01:18;99563.63;;;-1.70;86.34
58239;BME280;44037;55.638;37.356;2023-03-20T03:03:49;99567.13;;;-1.67;85.58
58239;BME280;44037;55.638;37.356;2023-03-20T03:06:22;99568.00;;;-1.67;85.91
58239;BME280;44037;55.638;37.356;2023-03-20T03:08:55;99563.81;;;-1.66;85.33
58239;BME280;44037;55.638;37.356;2023-03-20T03:11:24;99557.16;;;-1.64;85.58
58239;BME280;44037;55.638;37.356;2023-03-20T03:13:53;99553.91;;;-1.62;85.45
58239;BME280;44037;55.638;37.356;2023-03-20T03:16:24;99553.97;;;-1.60;84.78
58239;BME280;44037;55.638;37.356;2023-03-20T03:18:59;99552.22;;;-1.61;84.05
58239;BME280;44037;55.638;37.356;2023-03-20T03:21:31;99545.38;;;-1.62;84.18
58239;BME280;44037;55.638;37.356;2023-03-20T03:24:00;99554.69;;;-1.63;84.30
58239;BME280;44037;55.638;37.356;2023-03-20T03:26:31;99547.00;;;-1.64;83.46
58239;BME280;44037;55.638;37.356;2023-03-20T03:29:02;99547.00;;;-1.64;83.48
58239;BME280;44037;55.638;37.356;2023-03-20T03:31:31;99545.31;;;-1.64;83.15
58239;BME280;44037;55.638;37.356;2023-03-20T03:34:00;99541.91;;;-1.64;83.06
58239;BME280;44037;55.638;37.356;2023-03-20T03:36:37;99543.63;;;-1.63;82.42
58239;BME280;44037;55.638;37.356;2023-03-20T03:39:15;99548.63;;;-1.65;82.22
58239;BME280;44037;55.638;37.356;2023-03-20T03:41:49;99536.81;;;-1.64;82.24
58239;BME280;44037;55.638;37.356;2023-03-20T03:44:22;99537.75;;;-1.62;82.21
58239;BME280;44037;55.638;37.356;2023-03-20T03:46:54;99535.31;;;-1.61;81.96
58239;BME280;44037;55.638;37.356;2023-03-20T03:49:25;99539.69;;;-1.58;81.63
58239;BME280;44037;55.638;37.356;2023-03-20T03:51:56;99524.69;;;-1.53;81.43
58239;BME280;44037;55.638;37.356;2023-03-20T03:54:30;99526.63;;;-1.49;80.85
58239;BME280;44037;55.638;37.356;2023-03-20T03:57:00;99529.41;;;-1.45;81.23
58239;BME280;44037;55.638;37.356;2023-03-20T03:59:31;99533.09;;;-1.40;80.95
58239;BME280;44037;55.638;37.356;2023-03-20T04:02:03;99535.09;;;-1.34;80.28
58239;BME280;44037;55.638;37.356;2023-03-20T04:04:34;99525.97;;;-1.30;79.88
58239;BME280;44037;55.638;37.356;2023-03-20T04:07:02;99525.19;;;-1.29;79.15
58239;BME280;44037;55.638;37.356;2023-03-20T04:09:31;99525.25;;;-1.28;79.07
58239;BME280;44037;55.638;37.356;2023-03-20T04:11:58;99516.91;;;-1.25;79.13
58239;BME280;44037;55.638;37.356;2023-03-20T04:14:26;99526.41;;;-1.22;78.77
58239;BME280;44037;55.638;37.356;2023-03-20T04:16:53;99527.59;;;-1.16;78.41
58239;BME280;44037;55.638;37.356;2023-03-20T04:19:20;99523.78;;;-1.08;78.30
58239;BME280;44037;55.638;37.356;2023-03-20T04:21:47;99514.09;;;-0.98;78.33
58239;BME280;44037;55.638;37.356;2023-03-20T04:24:14;99514.69;;;-0.87;77.59
58239;BME280;44037;55.638;37.356;2023-03-20T04:26:42;99516.06;;;-0.78;77.26
58239;BME280;44037;55.638;37.356;2023-03-20T04:29:10;99511.66;;;-0.64;77.29
58239;BME280;44037;55.638;37.356;2023-03-20T04:31:37;99506.50;;;-0.49;76.94
58239;BME280;44037;55.638;37.356;2023-03-20T04:34:05;99502.13;;;-0.35;75.83
58239;BME280;44037;55.638;37.356;2023-03-20T04:36:32;99506.25;;;-0.20;75.89
58239;BME280;44037;55.638;37.356;2023-03-20T04:38:59;99508.81;;;-0.02;75.00
58239;BME280;44037;55.638;37.356;2023-03-20T04:41:28;99500.19;;;0.12;75.00
58239;BME280;44037;55.638;37.356;2023-03-20T04:43:56;99502.38;;;0.23;74.06
58239;BME280;44037;55.638;37.356;2023-03-20T04:46:24;99513.88;;;0.33;74.73
58239;BME280;44037;55.638;37.356;2023-03-20T04:48:51;99511.91;;;0.45;74.55
58239;BME280;44037;55.638;37.356;2023-03-20T04:51:18;99509.88;;;0.56;73.48
58239;BME280;44037;55.638;37.356;2023-03-20T04:53:45;99511.09;;;0.64;73.24
58239;BME280;44037;55.638;37.356;2023-03-20T04:56:12;99511.34;;;0.69;72.00
58239;BME280;44037;55.638;37.356;2023-03-20T04:58:39;99499.66;;;0.74;71.92
58239;BME280;44037;55.638;37.356;2023-03-20T05:01:08;99498.19;;;0.79;70.97
58239;BME280;44037;55.638;37.356;2023-03-20T05:03:35;99494.09;;;0.83;70.87
58239;BME280;44037;55.638;37.356;2023-03-20T05:06:03;99500.31;;;0.88;70.21
58239;BME280;44037;55.638;37.356;2023-03-20T05:08:30;99495.47;;;0.94;70.43
58239;BME280;44037;55.638;37.356;2023-03-20T05:10:57;99494.00;;;0.99;69.81
58239;BME280;44037;55.638;37.356;2023-03-20T05:13:24;99496.03;;;1.06;69.93
58239;BME280;44037;55.638;37.356;2023-03-20T05:15:51;99504.03;;;1.14;69.81
58239;BME280;44037;55.638;37.356;2023-03-20T05:18:20;99501.97;;;1.25;69.40
58239;BME280;44037;55.638;37.356;2023-03-20T05:20:47;99505.06;;;1.37;69.33
58239;BME280;44037;55.638;37.356;2023-03-20T05:23:15;99510.69;;;1.50;68.91
58239;BME280;44037;55.638;37.356;2023-03-20T05:25:42;99508.78;;;1.65;68.65
58239;BME280;44037;55.638;37.356;2023-03-20T05:28:10;99507.81;;;1.83;68.11
58239;BME280;44037;55.638;37.356;2023-03-20T05:30:37;99506.97;;;2.04;67.96
58239;BME280;44037;55.638;37.356;2023-03-20T05:33:04;99506.16;;;2.26;67.37
58239;BME280;44037;55.638;37.356;2023-03-20T05:35:34;99504.53;;;2.49;66.90
58239;BME280;44037;55.638;37.356;2023-03-20T05:38:01;99504.53;;;2.72;66.75
58239;BME280;44037;55.638;37.356;2023-03-20T05:40:28;99508.72;;;2.92;66.51
58239;BME280;44037;55.638;37.356;2023-03-20T05:42:55;99511.19;;;3.12;65.46
58239;BME280;44037;55.638;37.356;2023-03-20T05:45:22;99506.66;;;3.29;65.53
58239;BME280;44037;55.638;37.356;2023-03-20T05:47:49;99508.97;;;3.46;64.94
58239;BME280;44037;55.638;37.356;2023-03-20T05:50:17;99504.38;;;3.61;64.39
58239;BME280;44037;55.638;37.356;2023-03-20T05:52:47;99504.88;;;3.75;63.75
58239;BME280;44037;55.638;37.356;2023-03-20T05:55:14;99503.53;;;3.87;63.43
58239;BME280;44037;55.638;37.356;2023-03-20T05:57:41;99506.25;;;3.91;62.37
58239;BME280;44037;55.638;37.356;2023-03-20T06:00:10;99513.13;;;3.92;62.00
58239;BME280;44037;55.638;37.356;2023-03-20T06:02:37;99507.06;;;3.90;61.28
58239;BME280;44037;55.638;37.356;2023-03-20T06:05:04;99508.50;;;3.82;60.71
58239;BME280;44037;55.638;37.356;2023-03-20T06:07:31;99510.84;;;3.76;60.43
58239;BME280;44037;55.638;37.356;2023-03-20T06:10:00;99513.13;;;3.68;60.02
58239;BME280;44037;55.638;37.356;2023-03-20T06:12:28;99501.91;;;3.64;59.85
58239;BME280;44037;55.638;37.356;2023-03-20T06:14:55;99503.63;;;3.64;59.49
58239;BME280;44037;55.638;37.356;2023-03-20T06:17:22;99501.91;;;3.64;59.44
58239;BME280;44037;55.638;37.356;2023-03-20T06:19:49;99502.03;;;3.67;59.68
58239;BME280;44037;55.638;37.356;2023-03-20T06:22:17;99498.00;;;3.74;59.04
58239;BME280;44037;55.638;37.356;2023-03-20T06:24:44;99496.56;;;3.82;59.06
58239;BME280;44037;55.638;37.356;2023-03-20T06:27:12;99493.53;;;3.94;58.54
58239;BME280;44037;55.638;37.356;2023-03-20T06:29:40;99500.00;;;4.09;58.83
58239;BME280;44037;55.638;37.356;2023-03-20T06:32:07;99497.97;;;4.26;58.61
58239;BME280;44037;55.638;37.356;2023-03-20T06:34:37;99495.88;;;4.41;58.22
58239;BME280;44037;55.638;37.356;2023-03-20T06:37:04;99488.88;;;4.63;57.79
58239;BME280;44037;55.638;37.356;2023-03-20T06:39:31;99486.22;;;4.89;57.13
58239;BME280;44037;55.638;37.356;2023-03-20T06:41:58;99478.22;;;5.08;56.86
58239;BME280;44037;55.638;37.356;2023-03-20T06:44:27;99489.88;;;5.28;56.98
58239;BME280;44037;55.638;37.356;2023-03-20T06:46:54;99492.88;;;5.42;55.83
58239;BME280;44037;55.638;37.356;2023-03-20T06:49:21;99493.22;;;5.56;56.09
58239;BME280;44037;55.638;37.356;2023-03-20T06:51:49;99498.78;;;5.71;55.88
58239;BME280;44037;55.638;37.356;2023-03-20T06:54:16;99480.31;;;5.86;54.45
58239;BME280;44037;55.638;37.356;2023-03-20T06:56:43;99482.38;;;5.99;54.43
58239;BME280;44037;55.638;37.356;2023-03-20T06:59:10;99480.03;;;6.09;54.64
58239;BME280;44037;55.638;37.356;2023-03-20T07:01:38;99466.56;;;6.19;53.29
58239;BME280;44037;55.638;37.356;2023-03-20T07:04:05;99469.38;;;6.28;53.61
58239;BME280;44037;55.638;37.356;2023-03-20T07:06:32;99461.75;;;6.33;52.86
58239;BME280;44037;55.638;37.356;2023-03-20T07:08:59;99471.13;;;6.29;52.01
58239;BME280;44037;55.638;37.356;2023-03-20T07:11:27;99463.22;;;6.22;51.89
58239;BME280;44037;55.638;37.356;2023-03-20T07:13:55;99461.22;;;6.11;51.64
58239;BME280;44037;55.638;37.356;2023-03-20T07:16:22;99465.31;;;6.02;51.21
58239;BME280;44037;55.638;37.356;2023-03-20T07:18:50;99466.84;;;5.96;50.80
58239;BME280;44037;55.638;37.356;2023-03-20T07:21:19;99459.03;;;5.93;51.33
58239;BME280;44037;55.638;37.356;2023-03-20T07:23:47;99464.88;;;5.86;50.63
58239;BME280;44037;55.638;37.356;2023-03-20T07:26:14;99463.75;;;5.76;50.22
58239;BME280;44037;55.638;37.356;2023-03-20T07:28:41;99458.41;;;5.68;50.81
58239;BME280;44037;55.638;37.356;2023-03-20T07:31:17;99460.09;;;5.66;49.98
58239;BME280;44037;55.638;37.356;2023-03-20T07:33:44;99462.69;;;5.66;50.35
58239;BME280;44037;55.638;37.356;2023-03-20T07:36:13;99460.97;;;5.67;50.01
58239;BME280;44037;55.638;37.356;2023-03-20T07:38:40;99457.59;;;5.69;50.41
58239;BME280;44037;55.638;37.356;2023-03-20T07:41:13;99452.56;;;5.74;49.68
58239;BME280;44037;55.638;37.356;2023-03-20T07:43:40;99448.41;;;5.79;49.48
58239;BME280;44037;55.638;37.356;2023-03-20T07:46:08;99460.53;;;5.83;49.31
58239;BME280;44037;55.638;37.356;2023-03-20T07:48:35;99459.72;;;5.86;48.63
58239;BME280;44037;55.638;37.356;2023-03-20T07:51:02;99453.00;;;5.91;48.59
58239;BME280;44037;55.638;37.356;2023-03-20T07:53:31;99453.06;;;5.94;48.09
58239;BME280;44037;55.638;37.356;2023-03-20T07:55:58;99454.81;;;5.95;48.17
58239;BME280;44037;55.638;37.356;2023-03-20T07:58:25;99450.56;;;5.96;47.55
58239;BME280;44037;55.638;37.356;2023-03-20T08:00:52;99449.66;;;5.95;47.50
58239;BME280;44037;55.638;37.356;2023-03-20T08:03:19;99451.53;;;5.99;46.69
58239;BME280;44037;55.638;37.356;2023-03-20T08:05:46;99442.03;;;5.98;46.03
58239;BME280;44037;55.638;37.356;2023-03-20T08:08:13;99444.53;;;5.95;46.17
58239;BME280;44037;55.638;37.356;2023-03-20T08:10:42;99432.56;;;5.97;44.98
58239;BME280;44037;55.638;37.356;2023-03-20T08:13:09;99436.94;;;6.00;45.14
58239;BME280;44037;55.638;37.356;2023-03-20T08:15:36;99437.19;;;6.09;45.02
58239;BME280;44037;55.638;37.356;2023-03-20T08:18:03;99426.47;;;6.27;45.60
58239;BME280;44037;55.638;37.356;2023-03-20T08:20:31;99428.66;;;6.49;45.35
58239;BME280;44037;55.638;37.356;2023-03-20T08:22:58;99425.66;;;6.70;43.80
58239;BME280;44037;55.638;37.356;2023-03-20T08:25:25;99426.91;;;6.89;43.81
58239;BME280;44037;55.638;37.356;2023-03-20T08:27:55;99429.81;;;7.06;42.49
58239;BME280;44037;55.638;37.356;2023-03-20T08:30:22;99424.19;;;7.24;42.17
58239;BME280;44037;55.638;37.356;2023-03-20T08:32:49;99423.66;;;7.42;41.26
58239;BME280;44037;55.638;37.356;2023-03-20T08:35:16;99422.16;;;7.55;40.41
58239;BME280;44037;55.638;37.356;2023-03-20T08:37:44;99421.47;;;7.64;40.32
58239;BME280;44037;55.638;37.356;2023-03-20T08:40:11;99413.88;;;7.73;40.36
58239;BME280;44037;55.638;37.356;2023-03-20T08:42:38;99406.25;;;7.79;39.14
58239;BME280;44037;55.638;37.356;2023-03-20T08:45:08;99412.34;;;7.83;39.67
58239;BME280;44037;55.638;37.356;2023-03-20T08:47:35;99398.66;;;7.89;39.12
58239;BME280;44037;55.638;37.356;2023-03-20T08:50:03;99405.59;;;7.91;38.66
58239;BME280;44037;55.638;37.356;2023-03-20T08:52:30;99402.16;;;7.92;38.81
58239;BME280;44037;55.638;37.356;2023-03-20T08:54:57;99404.78;;;7.94;38.93
58239;BME280;44037;55.638;37.356;2023-03-20T08:57:24;99404.75;;;7.92;38.44
58239;BME280;44037;55.638;37.356;2023-03-20T08:59:51;99406.41;;;7.89;38.55
58239;BME280;44037;55.638;37.356;2023-03-20T09:02:20;99407.22;;;7.86;38.63
58239;BME280;44037;55.638;37.356;2023-03-20T09:04:47;99405.50;;;7.87;39.21
58239;BME280;44037;55.638;37.356;2023-03-20T09:07:14;99400.34;;;7.85;38.71
58239;BME280;44037;55.638;37.356;2023-03-20T09:09:41;99400.28;;;7.83;39.08
58239;BME280;44037;55.638;37.356;2023-03-20T09:12:08;99404.56;;;7.81;39.15
58239;BME280;44037;55.638;37.356;2023-03-20T09:14:35;99399.31;;;7.75;39.18
58239;BME280;44037;55.638;37.356;2023-03-20T09:17:03;99389.81;;;7.73;38.46
58239;BME280;44037;55.638;37.356;2023-03-20T09:19:32;99391.47;;;7.69;38.64
58239;BME280;44037;55.638;37.356;2023-03-20T09:22:02;99387.19;;;7.69;38.29
58239;BME280;44037;55.638;37.356;2023-03-20T09:24:29;99384.63;;;7.71;37.54
58239;BME280;44037;55.638;37.356;2023-03-20T09:26:58;99384.63;;;7.71;37.53
58239;BME280;44037;55.638;37.356;2023-03-20T09:29:25;99388.88;;;7.69;37.44
58239;BME280;44037;55.638;37.356;2023-03-20T09:31:53;99382.94;;;7.72;37.27
58239;BME280;44037;55.638;37.356;2023-03-20T09:34:21;99374.34;;;7.74;36.73
58239;BME280;44037;55.638;37.356;2023-03-20T09:36:50;99375.31;;;7.81;36.65
58239;BME280;44037;55.638;37.356;2023-03-20T09:39:17;99376.28;;;7.88;36.73
58239;BME280;44037;55.638;37.356;2023-03-20T09:41:47;99373.81;;;7.94;36.62
58239;BME280;44037;55.638;37.356;2023-03-20T09:44:18;99365.34;;;8.03;36.37
58239;BME280;44037;55.638;37.356;2023-03-20T09:47:02;99361.19;;;8.12;36.20
58239;BME280;44037;55.638;37.356;2023-03-20T09:49:41;99354.41;;;8.21;36.44
58239;BME280;44037;55.638;37.356;2023-03-20T09:52:26;99345.88;;;8.25;36.30
58239;BME280;44037;55.638;37.356;2023-03-20T09:54:57;99336.44;;;8.28;36.06
58239;BME280;44037;55.638;37.356;2023-03-20T09:57:33;99342.53;;;8.32;36.45
58239;BME280;44037;55.638;37.356;2023-03-20T10:00:06;99335.66;;;8.34;36.12
58239;BME280;44037;55.638;37.356;2023-03-20T10:02:45;99339.97;;;8.35;36.22
58239;BME280;44037;55.638;37.356;2023-03-20T10:05:20;99327.91;;;8.31;36.33
58239;BME280;44037;55.638;37.356;2023-03-20T10:07:53;99327.03;;;8.32;36.53
58239;BME280;44037;55.638;37.356;2023-03-20T10:10:28;99328.81;;;8.36;36.96
58239;BME280;44037;55.638;37.356;2023-03-20T10:13:03;99326.28;;;8.39;36.15
58239;BME280;44037;55.638;37.356;2023-03-20T10:15:42;99323.69;;;8.39;36.36
58239;BME280;44037;55.638;37.356;2023-03-20T10:18:17;99319.44;;;8.44;36.55
58239;BME280;44037;55.638;37.356;2023-03-20T10:20:54;99316.16;;;8.53;36.23
58239;BME280;44037;55.638;37.356;2023-03-20T10:23:26;99309.38;;;8.62;36.06
58239;BME280;44037;55.638;37.356;2023-03-20T10:26:04;99302.56;;;8.70;36.37
58239;BME280;44037;55.638;37.356;2023-03-20T10:28:36;99308.72;;;8.80;36.05
58239;BME280;44037;55.638;37.356;2023-03-20T10:31:20;99311.31;;;8.83;36.54
58239;BME280;44037;55.638;37.356;2023-03-20T10:33:59;99301.91;;;8.89;36.25
58239;BME280;44037;55.638;37.356;2023-03-20T10:36:52;99299.41;;;8.94;36.48
58239;BME280;44037;55.638;37.356;2023-03-20T10:39:32;99300.25;;;8.96;36.31
58239;BME280;44037;55.638;37.356;2023-03-20T10:42:08;99293.41;;;8.98;36.60
58239;BME280;44037;55.638;37.356;2023-03-20T10:44:42;99294.28;;;8.99;36.75
58239;BME280;44037;55.638;37.356;2023-03-20T10:47:14;99286.50;;;8.97;36.98
58239;BME280;44037;55.638;37.356;2023-03-20T10:49:45;99279.63;;;8.99;36.69
58239;BME280;44037;55.638;37.356;2023-03-20T10:52:16;99280.56;;;9.04;36.75
58239;BME280;44037;55.638;37.356;2023-03-20T10:54:46;99274.53;;;9.05;36.88
58239;BME280;44037;55.638;37.356;2023-03-20T10:57:19;99275.41;;;9.09;36.50
58239;BME280;44037;55.638;37.356;2023-03-20T10:59:49;99268.53;;;9.08;36.39
58239;BME280;44037;55.638;37.356;2023-03-20T11:02:18;99266.78;;;9.07;36.87
58239;BME280;44037;55.638;37.356;2023-03-20T11:04:45;99280.56;;;9.06;36.92
58239;BME280;44037;55.638;37.356;2023-03-20T11:07:20;99262.47;;;9.07;36.98
58239;BME280;44037;55.638;37.356;2023-03-20T11:10:07;99265.97;;;9.13;37.11
58239;BME280;44037;55.638;37.356;2023-03-20T11:12:37;99266.00;;;9.17;37.10
58239;BME280;44037;55.638;37.356;2023-03-20T11:15:18;99260.84;;;9.16;37.35
58239;BME280;44037;55.638;37.356;2023-03-20T11:17:52;99269.44;;;9.15;37.67
58239;BME280;44037;55.638;37.356;2023-03-20T11:20:20;99260.81;;;9.14;37.79
58239;BME280;44037;55.638;37.356;2023-03-20T11:22:48;99253.97;;;9.18;37.64
58239;BME280;44037;55.638;37.356;2023-03-20T11:25:28;99247.09;;;9.21;37.85
58239;BME280;44037;55.638;37.356;2023-03-20T11:27:57;99251.44;;;9.27;37.80
58239;BME280;44037;55.638;37.356;2023-03-20T11:30:43;99245.47;;;9.31;37.63
58239;BME280;44037;55.638;37.356;2023-03-20T11:33:11;99243.72;;;9.33;37.90
58239;BME280;44037;55.638;37.356;2023-03-20T11:35:44;99234.28;;;9.32;37.77
58239;BME280;44037;55.638;37.356;2023-03-20T11:38:13;99238.56;;;9.33;38.05
58239;BME280;44037;55.638;37.356;2023-03-20T11:40:42;99229.09;;;9.35;37.99
58239;BME280;44037;55.638;37.356;2023-03-20T11:43:12;99229.16;;;9.43;38.15
58239;BME280;44037;55.638;37.356;2023-03-20T11:45:41;99225.78;;;9.53;38.09
58239;BME280;44037;55.638;37.356;2023-03-20T11:48:17;99220.66;;;9.60;38.29
58239;BME280;44037;55.638;37.356;2023-03-20T11:50:47;99218.09;;;9.63;37.94
58239;BME280;44037;55.638;37.356;2023-03-20T11:53:27;99224.13;;;9.65;37.93
58239;BME280;44037;55.638;37.356;2023-03-20T11:56:19;99219.84;;;9.68;37.75
58239;BME280;44037;55.638;37.356;2023-03-20T11:58:55;99212.94;;;9.71;38.13
58239;BME280;44037;55.638;37.356;2023-03-20T12:01:39;99208.66;;;9.70;37.89
58239;BME280;44037;55.638;37.356;2023-03-20T12:04:12;99207.78;;;9.67;37.48
58239;BME280;44037;55.638;37.356;2023-03-20T12:06:47;99200.03;;;9.67;37.79
58239;BME280;44037;55.638;37.356;2023-03-20T12:09:32;99199.13;;;9.67;37.53
58239;BME280;44037;55.638;37.356;2023-03-20T12:12:04;99197.44;;;9.67;37.62
58239;BME280;44037;55.638;37.356;2023-03-20T12:14:39;99197.41;;;9.64;37.41
58239;BME280;44037;55.638;37.356;2023-03-20T12:17:31;99199.06;;;9.53;37.65
58239;BME280;44037;55.638;37.356;2023-03-20T12:20:12;99188.69;;;9.48;38.01
58239;BME280;44037;55.638;37.356;2023-03-20T12:22:48;99188.69;;;9.50;38.01
58239;BME280;44037;55.638;37.356;2023-03-20T12:25:21;99181.81;;;9.53;38.07
58239;BME280;44037;55.638;37.356;2023-03-20T12:27:56;99172.34;;;9.54;37.69
58239;BME280;44037;55.638;37.356;2023-03-20T12:30:44;99177.53;;;9.54;37.92
58239;BME280;44037;55.638;37.356;2023-03-20T12:33:25;99171.47;;;9.53;37.91
58239;BME280;44037;55.638;37.356;2023-03-20T12:36:02;99166.31;;;9.55;37.97
58239;BME280;44037;55.638;37.356;2023-03-20T12:38:34;99166.31;;;9.58;38.06
58239;BME280;44037;55.638;37.356;2023-03-20T12:41:10;99169.81;;;9.65;38.48
58239;BME280;44037;55.638;37.356;2023-03-20T12:44:19;99166.38;;;9.71;38.83
58239;BME280;44037;55.638;37.356;2023-03-20T12:46:57;99162.09;;;9.71;38.62
58239;BME280;44037;55.638;37.356;2023-03-20T12:49:36;99159.50;;;9.73;38.37
58239;BME280;44037;55.638;37.356;2023-03-20T12:52:14;99166.41;;;9.74;38.48
58239;BME280;44037;55.638;37.356;2023-03-20T12:55:08;99156.91;;;9.73;38.79
58239;BME280;44037;55.638;37.356;2023-03-20T12:57:47;99156.03;;;9.71;38.94
58239;BME280;44037;55.638;37.356;2023-03-20T13:00:21;99150.00;;;9.67;38.58
58239;BME280;44037;55.638;37.356;2023-03-20T13:03:02;99147.41;;;9.65;38.74
58239;BME280;44037;55.638;37.356;2023-03-20T13:05:39;99146.56;;;9.66;38.97
58239;BME280;44037;55.638;37.356;2023-03-20T13:08:36;99141.34;;;9.65;39.11
58239;BME280;44037;55.638;37.356;2023-03-20T13:11:09;99143.09;;;9.67;39.03
58239;BME280;44037;55.638;37.356;2023-03-20T13:13:44;99142.25;;;9.70;39.25
58239;BME280;44037;55.638;37.356;2023-03-20T13:16:19;99131.06;;;9.74;39.27
58239;BME280;44037;55.638;37.356;2023-03-20T13:18:54;99125.03;;;9.77;39.29
58239;BME280;44037;55.638;37.356;2023-03-20T13:21:26;99124.19;;;9.82;39.39
58239;BME280;44037;55.638;37.356;2023-03-20T13:24:00;99125.94;;;9.88;38.68
58239;BME280;44037;55.638;37.356;2023-03-20T13:26:37;99121.63;;;9.90;38.85
58239;BME280;44037;55.638;37.356;2023-03-20T13:29:11;99116.47;;;9.93;38.66
58239;BME280;44037;55.638;37.356;2023-03-20T13:31:59;99119.06;;;9.90;38.85